sensor_id;sensor_type;location;lat;lon;timestamp;P1;durP1;ratioP1;P2;durP2;ratioP2
12687;SDS011;6408;59.388;17.798;2022-12-07T00:01:44;6.13;;;2.60;;
12687;SDS011;6408;59.388;17.798;2022-12-07T00:04:13;2.77;;;2.27;;
12687;SDS011;6408;59.388;17.798;2022-12-07T00:06:45;4.67;;;1.80;;
12687;SDS011;6408;59.388;17.798;2022-12-07T00:09:17;5.10;;;1.60;;
12687;SDS011;6408;59.388;17.798;2022-12-07T00:11:47;2.67;;;1.40;;
12687;SDS011;6408;59.388;17.798;2022-12-07T00:14:22;2.73;;;1.70;;
12687;SDS011;6408;59.388;17.798;2022-12-07T00:16:57;3.33;;;1.67;;
12687;SDS011;6408;59.388;17.798;2022-12-07T00:19:25;3.23;;;1.67;;
12687;SDS011;6408;59.388;17.798;2022-12-07T00:22:00;1.93;;;1.50;;
12687;SDS011;6408;59.388;17.798;2022-12-07T00:24:33;5.97;;;1.63;;
12687;SDS011;6408;59.388;17.798;2022-12-07T00:27:11;2.90;;;1.50;;
12687;SDS011;6408;59.388;17.798;2022-12-07T00:29:47;5.63;;;1.93;;
12687;SDS011;6408;59.388;17.798;2022-12-07T00:32:20;3.37;;;1.93;;
12687;SDS011;6408;59.388;17.798;2022-12-07T00:35:02;2.50;;;1.70;;
12687;SDS011;6408;59.388;17.798;2022-12-07T00:37:34;4.80;;;1.73;;
12687;SDS011;6408;59.388;17.798;2022-12-07T00:40:02;4.40;;;1.83;;
12687;SDS011;6408;59.388;17.798;2022-12-07T00:42:30;5.37;;;1.60;;
12687;SDS011;6408;59.388;17.798;2022-12-07T00:45:00;4.27;;;2.00;;
12687;SDS011;6408;59.388;17.798;2022-12-07T00:47:36;4.73;;;1.80;;
12687;SDS011;6408;59.388;17.798;2022-12-07T00:50:04;3.00;;;1.73;;
12687;SDS011;6408;59.388;17.798;2022-12-07T00:52:44;2.40;;;1.63;;
12687;SDS011;6408;59.388;17.798;2022-12-07T00:55:16;5.20;;;1.40;;
12687;SDS011;6408;59.388;17.798;2022-12-07T00:57:48;2.10;;;1.53;;
12687;SDS011;6408;59.388;17.798;2022-12-07T01:00:21;4.67;;;1.57;;
12687;SDS011;6408;59.388;17.798;2022-12-07T01:02:48;4.70;;;1.80;;
12687;SDS011;6408;59.388;17.798;2022-12-07T01:05:18;4.87;;;1.60;;
12687;SDS011;6408;59.388;17.798;2022-12-07T01:08:08;3.60;;;1.70;;
12687;SDS011;6408;59.388;17.798;2022-12-07T01:10:59;2.03;;;1.40;;
12687;SDS011;6408;59.388;17.798;2022-12-07T01:13:40;2.97;;;1.73;;
12687;SDS011;6408;59.388;17.798;2022-12-07T01:16:51;5.20;;;2.00;;
12687;SDS011;6408;59.388;17.798;2022-12-07T01:20:07;3.13;;;1.43;;
12687;SDS011;6408;59.388;17.798;2022-12-07T01:23:48;4.27;;;1.93;;
12687;SDS011;6408;59.388;17.798;2022-12-07T01:27:10;4.87;;;1.70;;
12687;SDS011;6408;59.388;17.798;2022-12-07T01:30:11;4.13;;;1.60;;
12687;SDS011;6408;59.388;17.798;2022-12-07T01:33:25;6.87;;;1.67;;
12687;SDS011;6408;59.388;17.798;2022-12-07T01:36:07;2.87;;;1.80;;
12687;SDS011;6408;59.388;17.798;2022-12-07T01:55:30;2.43;;;1.30;;
12687;SDS011;6408;59.388;17.798;2022-12-07T02:05:08;2.70;;;1.40;;
12687;SDS011;6408;59.388;17.798;2022-12-07T02:08:17;2.70;;;1.60;;
12687;SDS011;6408;59.388;17.798;2022-12-07T02:10:52;4.67;;;1.43;;
12687;SDS011;6408;59.388;17.798;2022-12-07T02:13:23;2.20;;;1.50;;
12687;SDS011;6408;59.388;17.798;2022-12-07T02:15:59;6.37;;;2.07;;
12687;SDS011;6408;59.388;17.798;2022-12-07T02:18:51;4.37;;;1.57;;
12687;SDS011;6408;59.388;17.798;2022-12-07T02:21:36;3.67;;;1.53;;
12687;SDS011;6408;59.388;17.798;2022-12-07T02:24:23;6.87;;;1.77;;
12687;SDS011;6408;59.388;17.798;2022-12-07T02:27:11;5.53;;;1.80;;
12687;SDS011;6408;59.388;17.798;2022-12-07T02:30:22;8.40;;;1.63;;
12687;SDS011;6408;59.388;17.798;2022-12-07T02:33:27;2.33;;;1.33;;
12687;SDS011;6408;59.388;17.798;2022-12-07T02:39:27;3.53;;;1.80;;
12687;SDS011;6408;59.388;17.798;2022-12-07T02:42:28;4.60;;;1.50;;
12687;SDS011;6408;59.388;17.798;2022-12-07T02:45:04;3.43;;;1.40;;
12687;SDS011;6408;59.388;17.798;2022-12-07T02:47:56;2.87;;;1.50;;
12687;SDS011;6408;59.388;17.798;2022-12-07T02:50:26;4.93;;;1.30;;
12687;SDS011;6408;59.388;17.798;2022-12-07T02:53:31;5.20;;;1.60;;
12687;SDS011;6408;59.388;17.798;2022-12-07T02:56:21;6.77;;;1.53;;
12687;SDS011;6408;59.388;17.798;2022-12-07T02:59:25;3.03;;;1.40;;
12687;SDS011;6408;59.388;17.798;2022-12-07T03:02:31;3.33;;;1.47;;
12687;SDS011;6408;59.388;17.798;2022-12-07T03:05:58;3.93;;;1.80;;
12687;SDS011;6408;59.388;17.798;2022-12-07T03:08:38;3.40;;;1.70;;
12687;SDS011;6408;59.388;17.798;2022-12-07T03:11:16;2.43;;;1.57;;
12687;SDS011;6408;59.388;17.798;2022-12-07T03:19:45;6.30;;;1.57;;
12687;SDS011;6408;59.388;17.798;2022-12-07T03:27:08;1.90;;;1.30;;
12687;SDS011;6408;59.388;17.798;2022-12-07T03:30:02;3.13;;;1.50;;
12687;SDS011;6408;59.388;17.798;2022-12-07T03:33:17;3.50;;;1.20;;
12687;SDS011;6408;59.388;17.798;2022-12-07T03:45:51;1.93;;;1.40;;
12687;SDS011;6408;59.388;17.798;2022-12-07T03:48:27;3.00;;;1.73;;
12687;SDS011;6408;59.388;17.798;2022-12-07T03:54:27;3.07;;;1.80;;
12687;SDS011;6408;59.388;17.798;2022-12-07T04:00:57;1.67;;;1.30;;
12687;SDS011;6408;59.388;17.798;2022-12-07T04:03:58;3.67;;;1.60;;
12687;SDS011;6408;59.388;17.798;2022-12-07T04:06:26;3.03;;;1.70;;
12687;SDS011;6408;59.388;17.798;2022-12-07T04:09:11;2.73;;;1.40;;
12687;SDS011;6408;59.388;17.798;2022-12-07T04:11:43;2.23;;;1.40;;
12687;SDS011;6408;59.388;17.798;2022-12-07T04:14:25;2.33;;;1.57;;
12687;SDS011;6408;59.388;17.798;2022-12-07T04:17:12;1.73;;;1.10;;
12687;SDS011;6408;59.388;17.798;2022-12-07T04:20:10;2.53;;;1.30;;
12687;SDS011;6408;59.388;17.798;2022-12-07T04:23:28;3.63;;;1.57;;
12687;SDS011;6408;59.388;17.798;2022-12-07T04:27:33;2.93;;;1.50;;
12687;SDS011;6408;59.388;17.798;2022-12-07T04:29:50;5.77;;;1.60;;
12687;SDS011;6408;59.388;17.798;2022-12-07T04:32:35;4.50;;;1.40;;
12687;SDS011;6408;59.388;17.798;2022-12-07T04:35:30;3.93;;;1.60;;
12687;SDS011;6408;59.388;17.798;2022-12-07T04:38:42;5.80;;;1.73;;
12687;SDS011;6408;59.388;17.798;2022-12-07T05:00:39;2.80;;;1.70;;
12687;SDS011;6408;59.388;17.798;2022-12-07T05:06:51;3.13;;;1.47;;
12687;SDS011;6408;59.388;17.798;2022-12-07T05:09:55;3.23;;;1.53;;
12687;SDS011;6408;59.388;17.798;2022-12-07T05:19:44;6.67;;;1.23;;
12687;SDS011;6408;59.388;17.798;2022-12-07T05:22:41;3.57;;;1.20;;
12687;SDS011;6408;59.388;17.798;2022-12-07T05:25:33;2.67;;;1.40;;
12687;SDS011;6408;59.388;17.798;2022-12-07T05:31:42;4.57;;;1.33;;
12687;SDS011;6408;59.388;17.798;2022-12-07T05:34:34;7.23;;;1.80;;
12687;SDS011;6408;59.388;17.798;2022-12-07T05:40:52;4.10;;;1.83;;
12687;SDS011;6408;59.388;17.798;2022-12-07T05:47:00;3.90;;;1.30;;
12687;SDS011;6408;59.388;17.798;2022-12-07T05:51:11;3.70;;;1.70;;
12687;SDS011;6408;59.388;17.798;2022-12-07T05:53:38;3.77;;;1.60;;
12687;SDS011;6408;59.388;17.798;2022-12-07T06:00:26;9.23;;;1.90;;
12687;SDS011;6408;59.388;17.798;2022-12-07T06:02:55;1.60;;;1.50;;
12687;SDS011;6408;59.388;17.798;2022-12-07T06:05:44;1.40;;;1.13;;
12687;SDS011;6408;59.388;17.798;2022-12-07T06:11:50;2.60;;;1.80;;
12687;SDS011;6408;59.388;17.798;2022-12-07T06:14:39;2.93;;;1.50;;
12687;SDS011;6408;59.388;17.798;2022-12-07T06:20:00;2.97;;;1.27;;
12687;SDS011;6408;59.388;17.798;2022-12-07T06:25:48;3.70;;;1.80;;
12687;SDS011;6408;59.388;17.798;2022-12-07T06:31:51;3.23;;;1.53;;
12687;SDS011;6408;59.388;17.798;2022-12-07T06:34:28;2.60;;;1.60;;
12687;SDS011;6408;59.388;17.798;2022-12-07T06:37:57;3.77;;;1.67;;
12687;SDS011;6408;59.388;17.798;2022-12-07T06:43:45;3.27;;;1.83;;
12687;SDS011;6408;59.388;17.798;2022-12-07T06:46:13;4.37;;;2.50;;
12687;SDS011;6408;59.388;17.798;2022-12-07T06:48:58;3.60;;;1.70;;
12687;SDS011;6408;59.388;17.798;2022-12-07T06:51:31;3.80;;;1.83;;
12687;SDS011;6408;59.388;17.798;2022-12-07T06:54:12;4.67;;;1.50;;
12687;SDS011;6408;59.388;17.798;2022-12-07T06:57:02;3.33;;;1.77;;
12687;SDS011;6408;59.388;17.798;2022-12-07T07:02:50;3.57;;;1.97;;
12687;SDS011;6408;59.388;17.798;2022-12-07T07:25:58;2.67;;;1.60;;
12687;SDS011;6408;59.388;17.798;2022-12-07T07:28:55;3.47;;;1.30;;
12687;SDS011;6408;59.388;17.798;2022-12-07T07:31:47;2.57;;;1.50;;
12687;SDS011;6408;59.388;17.798;2022-12-07T07:35:36;7.47;;;3.63;;
12687;SDS011;6408;59.388;17.798;2022-12-07T07:38:31;3.77;;;2.57;;
12687;SDS011;6408;59.388;17.798;2022-12-07T07:41:30;2.63;;;2.20;;
12687;SDS011;6408;59.388;17.798;2022-12-07T07:44:02;3.53;;;2.10;;
12687;SDS011;6408;59.388;17.798;2022-12-07T07:47:09;6.37;;;2.30;;
12687;SDS011;6408;59.388;17.798;2022-12-07T07:49:47;5.37;;;1.93;;
12687;SDS011;6408;59.388;17.798;2022-12-07T07:52:49;5.33;;;1.47;;
12687;SDS011;6408;59.388;17.798;2022-12-07T07:58:55;4.03;;;2.13;;
12687;SDS011;6408;59.388;17.798;2022-12-07T08:08:10;3.43;;;1.43;;
12687;SDS011;6408;59.388;17.798;2022-12-07T08:10:40;2.53;;;1.50;;
12687;SDS011;6408;59.388;17.798;2022-12-07T08:30:47;3.23;;;1.43;;
12687;SDS011;6408;59.388;17.798;2022-12-07T08:33:27;5.27;;;2.03;;
12687;SDS011;6408;59.388;17.798;2022-12-07T08:36:13;5.30;;;2.03;;
12687;SDS011;6408;59.388;17.798;2022-12-07T08:38:44;3.73;;;1.53;;
12687;SDS011;6408;59.388;17.798;2022-12-07T08:45:06;4.17;;;1.57;;
12687;SDS011;6408;59.388;17.798;2022-12-07T08:48:09;3.33;;;1.60;;
12687;SDS011;6408;59.388;17.798;2022-12-07T08:51:05;2.43;;;1.70;;
12687;SDS011;6408;59.388;17.798;2022-12-07T09:01:09;6.40;;;2.07;;
12687;SDS011;6408;59.388;17.798;2022-12-07T09:06:48;6.37;;;1.87;;
12687;SDS011;6408;59.388;17.798;2022-12-07T09:09:19;3.53;;;1.67;;
12687;SDS011;6408;59.388;17.798;2022-12-07T09:12:29;2.60;;;1.53;;
12687;SDS011;6408;59.388;17.798;2022-12-07T09:18:18;3.13;;;1.53;;
12687;SDS011;6408;59.388;17.798;2022-12-07T09:20:47;4.30;;;1.87;;
12687;SDS011;6408;59.388;17.798;2022-12-07T09:23:21;4.23;;;1.50;;
12687;SDS011;6408;59.388;17.798;2022-12-07T09:25:58;4.10;;;1.70;;
12687;SDS011;6408;59.388;17.798;2022-12-07T09:28:29;2.63;;;1.70;;
12687;SDS011;6408;59.388;17.798;2022-12-07T09:30:58;4.27;;;1.73;;
12687;SDS011;6408;59.388;17.798;2022-12-07T09:33:32;6.43;;;1.70;;
12687;SDS011;6408;59.388;17.798;2022-12-07T09:36:05;1.87;;;1.37;;
12687;SDS011;6408;59.388;17.798;2022-12-07T09:38:37;3.97;;;1.80;;
12687;SDS011;6408;59.388;17.798;2022-12-07T09:41:14;2.63;;;1.50;;
12687;SDS011;6408;59.388;17.798;2022-12-07T09:43:47;4.30;;;1.33;;
12687;SDS011;6408;59.388;17.798;2022-12-07T09:47:07;4.17;;;1.50;;
12687;SDS011;6408;59.388;17.798;2022-12-07T09:50:12;2.97;;;1.60;;
12687;SDS011;6408;59.388;17.798;2022-12-07T09:53:05;3.30;;;1.90;;
12687;SDS011;6408;59.388;17.798;2022-12-07T09:55:38;4.97;;;1.90;;
12687;SDS011;6408;59.388;17.798;2022-12-07T09:58:23;8.27;;;2.07;;
12687;SDS011;6408;59.388;17.798;2022-12-07T10:00:56;6.53;;;2.63;;
12687;SDS011;6408;59.388;17.798;2022-12-07T10:03:27;6.53;;;3.10;;
12687;SDS011;6408;59.388;17.798;2022-12-07T10:05:55;10.93;;;5.10;;
12687;SDS011;6408;59.388;17.798;2022-12-07T10:08:35;7.03;;;2.90;;
12687;SDS011;6408;59.388;17.798;2022-12-07T10:11:02;8.37;;;2.90;;
12687;SDS011;6408;59.388;17.798;2022-12-07T10:13:38;5.63;;;2.37;;
12687;SDS011;6408;59.388;17.798;2022-12-07T10:16:09;9.43;;;2.80;;
12687;SDS011;6408;59.388;17.798;2022-12-07T10:19:41;4.47;;;1.53;;
12687;SDS011;6408;59.388;17.798;2022-12-07T10:22:31;4.53;;;2.47;;
12687;SDS011;6408;59.388;17.798;2022-12-07T10:25:38;5.67;;;2.10;;
12687;SDS011;6408;59.388;17.798;2022-12-07T10:28:22;5.37;;;2.10;;
12687;SDS011;6408;59.388;17.798;2022-12-07T10:31:15;3.87;;;2.07;;
12687;SDS011;6408;59.388;17.798;2022-12-07T10:44:43;2.57;;;1.37;;
12687;SDS011;6408;59.388;17.798;2022-12-07T10:50:52;4.33;;;1.60;;
12687;SDS011;6408;59.388;17.798;2022-12-07T10:57:30;6.07;;;1.47;;
12687;SDS011;6408;59.388;17.798;2022-12-07T11:00:58;1.73;;;1.13;;
12687;SDS011;6408;59.388;17.798;2022-12-07T11:07:27;5.57;;;2.33;;
12687;SDS011;6408;59.388;17.798;2022-12-07T11:10:15;5.63;;;2.17;;
12687;SDS011;6408;59.388;17.798;2022-12-07T11:12:52;3.73;;;1.97;;
12687;SDS011;6408;59.388;17.798;2022-12-07T11:19:05;3.17;;;1.53;;
12687;SDS011;6408;59.388;17.798;2022-12-07T11:22:26;2.90;;;1.60;;
12687;SDS011;6408;59.388;17.798;2022-12-07T11:25:35;3.17;;;1.63;;
12687;SDS011;6408;59.388;17.798;2022-12-07T11:28:20;1.67;;;1.37;;
12687;SDS011;6408;59.388;17.798;2022-12-07T11:37:59;2.13;;;1.40;;
12687;SDS011;6408;59.388;17.798;2022-12-07T11:43:49;5.07;;;1.40;;
12687;SDS011;6408;59.388;17.798;2022-12-07T11:48:14;3.83;;;1.30;;
12687;SDS011;6408;59.388;17.798;2022-12-07T11:50:20;3.13;;;1.60;;
12687;SDS011;6408;59.388;17.798;2022-12-07T11:52:54;2.57;;;1.37;;
12687;SDS011;6408;59.388;17.798;2022-12-07T11:56:10;2.30;;;1.27;;
12687;SDS011;6408;59.388;17.798;2022-12-07T11:59:04;3.07;;;1.40;;
12687;SDS011;6408;59.388;17.798;2022-12-07T12:01:48;4.13;;;1.70;;
12687;SDS011;6408;59.388;17.798;2022-12-07T12:07:30;2.60;;;1.50;;
12687;SDS011;6408;59.388;17.798;2022-12-07T12:10:04;3.43;;;1.47;;
12687;SDS011;6408;59.388;17.798;2022-12-07T12:23:55;4.43;;;1.37;;
12687;SDS011;6408;59.388;17.798;2022-12-07T12:26:48;3.27;;;1.90;;
12687;SDS011;6408;59.388;17.798;2022-12-07T12:32:54;2.03;;;1.10;;
12687;SDS011;6408;59.388;17.798;2022-12-07T12:35:36;6.37;;;2.97;;
12687;SDS011;6408;59.388;17.798;2022-12-07T12:38:29;6.90;;;2.53;;
12687;SDS011;6408;59.388;17.798;2022-12-07T12:41:00;3.17;;;1.97;;
12687;SDS011;6408;59.388;17.798;2022-12-07T12:43:40;2.47;;;1.60;;
12687;SDS011;6408;59.388;17.798;2022-12-07T12:55:48;4.37;;;1.60;;
12687;SDS011;6408;59.388;17.798;2022-12-07T13:02:29;3.13;;;1.33;;
12687;SDS011;6408;59.388;17.798;2022-12-07T13:05:16;1.73;;;1.60;;
12687;SDS011;6408;59.388;17.798;2022-12-07T13:07:58;2.50;;;1.90;;
12687;SDS011;6408;59.388;17.798;2022-12-07T13:10:37;4.43;;;2.17;;
12687;SDS011;6408;59.388;17.798;2022-12-07T13:22:57;5.40;;;1.57;;
12687;SDS011;6408;59.388;17.798;2022-12-07T13:25:36;5.30;;;1.80;;
12687;SDS011;6408;59.388;17.798;2022-12-07T13:28:36;3.93;;;2.50;;
12687;SDS011;6408;59.388;17.798;2022-12-07T13:31:33;4.07;;;3.07;;
12687;SDS011;6408;59.388;17.798;2022-12-07T13:34:29;7.40;;;2.37;;
12687;SDS011;6408;59.388;17.798;2022-12-07T13:37:10;3.90;;;2.00;;
12687;SDS011;6408;59.388;17.798;2022-12-07T13:39:47;7.40;;;3.23;;
12687;SDS011;6408;59.388;17.798;2022-12-07T13:42:27;7.37;;;2.93;;
12687;SDS011;6408;59.388;17.798;2022-12-07T13:45:17;6.53;;;3.40;;
12687;SDS011;6408;59.388;17.798;2022-12-07T13:48:10;4.03;;;3.27;;
12687;SDS011;6408;59.388;17.798;2022-12-07T13:50:52;8.43;;;3.03;;
12687;SDS011;6408;59.388;17.798;2022-12-07T13:53:47;6.57;;;3.33;;
12687;SDS011;6408;59.388;17.798;2022-12-07T13:56:35;3.60;;;2.20;;
12687;SDS011;6408;59.388;17.798;2022-12-07T13:59:04;7.33;;;3.00;;
12687;SDS011;6408;59.388;17.798;2022-12-07T14:01:39;8.80;;;4.23;;
12687;SDS011;6408;59.388;17.798;2022-12-07T14:04:19;8.43;;;3.80;;
12687;SDS011;6408;59.388;17.798;2022-12-07T14:07:00;5.60;;;2.63;;
12687;SDS011;6408;59.388;17.798;2022-12-07T14:10:00;6.07;;;2.27;;
12687;SDS011;6408;59.388;17.798;2022-12-07T14:16:36;3.00;;;1.77;;
12687;SDS011;6408;59.388;17.798;2022-12-07T14:25:24;7.67;;;2.00;;
12687;SDS011;6408;59.388;17.798;2022-12-07T14:28:24;3.17;;;1.93;;
12687;SDS011;6408;59.388;17.798;2022-12-07T14:31:24;4.77;;;1.80;;
12687;SDS011;6408;59.388;17.798;2022-12-07T14:33:53;5.63;;;2.43;;
12687;SDS011;6408;59.388;17.798;2022-12-07T14:36:46;3.90;;;1.70;;
12687;SDS011;6408;59.388;17.798;2022-12-07T14:39:34;5.83;;;2.20;;
12687;SDS011;6408;59.388;17.798;2022-12-07T14:44:51;4.27;;;1.87;;
12687;SDS011;6408;59.388;17.798;2022-12-07T14:47:33;2.53;;;1.83;;
12687;SDS011;6408;59.388;17.798;2022-12-07T14:50:07;3.93;;;2.30;;
12687;SDS011;6408;59.388;17.798;2022-12-07T14:52:41;4.27;;;2.23;;
12687;SDS011;6408;59.388;17.798;2022-12-07T14:55:26;4.07;;;2.20;;
12687;SDS011;6408;59.388;17.798;2022-12-07T15:05:15;3.33;;;1.70;;
12687;SDS011;6408;59.388;17.798;2022-12-07T15:07:59;4.33;;;2.50;;
12687;SDS011;6408;59.388;17.798;2022-12-07T15:11:04;3.47;;;1.90;;
12687;SDS011;6408;59.388;17.798;2022-12-07T15:27:55;3.17;;;1.80;;
12687;SDS011;6408;59.388;17.798;2022-12-07T15:34:35;2.87;;;2.03;;
12687;SDS011;6408;59.388;17.798;2022-12-07T15:54:00;6.93;;;2.40;;
12687;SDS011;6408;59.388;17.798;2022-12-07T15:56:41;3.70;;;2.50;;
12687;SDS011;6408;59.388;17.798;2022-12-07T15:59:36;5.60;;;2.97;;
12687;SDS011;6408;59.388;17.798;2022-12-07T16:02:17;3.87;;;2.87;;
12687;SDS011;6408;59.388;17.798;2022-12-07T16:05:05;4.90;;;2.80;;
12687;SDS011;6408;59.388;17.798;2022-12-07T16:07:58;5.23;;;2.90;;
12687;SDS011;6408;59.388;17.798;2022-12-07T16:11:25;3.87;;;2.50;;
12687;SDS011;6408;59.388;17.798;2022-12-07T16:14:42;4.77;;;2.43;;
12687;SDS011;6408;59.388;17.798;2022-12-07T16:17:33;4.60;;;3.00;;
12687;SDS011;6408;59.388;17.798;2022-12-07T16:21:56;8.30;;;4.20;;
12687;SDS011;6408;59.388;17.798;2022-12-07T16:24:31;8.43;;;3.90;;
12687;SDS011;6408;59.388;17.798;2022-12-07T16:27:24;6.53;;;3.80;;
12687;SDS011;6408;59.388;17.798;2022-12-07T16:30:11;5.87;;;3.63;;
12687;SDS011;6408;59.388;17.798;2022-12-07T16:32:57;7.00;;;4.50;;
12687;SDS011;6408;59.388;17.798;2022-12-07T16:35:44;7.60;;;3.70;;
12687;SDS011;6408;59.388;17.798;2022-12-07T16:38:41;5.67;;;3.30;;
12687;SDS011;6408;59.388;17.798;2022-12-07T16:45:02;6.30;;;3.37;;
12687;SDS011;6408;59.388;17.798;2022-12-07T16:47:38;3.67;;;2.70;;
12687;SDS011;6408;59.388;17.798;2022-12-07T16:50:37;4.90;;;3.33;;
12687;SDS011;6408;59.388;17.798;2022-12-07T16:53:43;5.10;;;3.20;;
12687;SDS011;6408;59.388;17.798;2022-12-07T16:56:34;4.23;;;3.40;;
12687;SDS011;6408;59.388;17.798;2022-12-07T16:59:18;6.40;;;4.10;;
12687;SDS011;6408;59.388;17.798;2022-12-07T20:50:53;4.87;;;1.90;;
